sensor_id;sensor_type;location;lat;lon;timestamp;pressure;altitude;pressure_sealevel;temperature;humidity
53719;BME280;39616;48.872;9.390;2023-12-29T00:00:52;98390.19;;;9.34;93.68
53719;BME280;39616;48.872;9.390;2023-12-29T00:03:22;98392.16;;;9.28;93.82
53719;BME280;39616;48.872;9.390;2023-12-29T00:05:52;98388.38;;;9.24;94.09
53719;BME280;39616;48.872;9.390;2023-12-29T00:08:23;98389.19;;;9.25;93.76
53719;BME280;39616;48.872;9.390;2023-12-29T00:10:53;98376.16;;;9.32;93.69
53719;BME280;39616;48.872;9.390;2023-12-29T00:13:23;98379.09;;;9.35;93.31
53719;BME280;39616;48.872;9.390;2023-12-29T00:15:55;98377.66;;;9.43;92.74
53719;BME280;39616;48.872;9.390;2023-12-29T00:18:26;98377.56;;;9.48;92.71
53719;BME280;39616;48.872;9.390;2023-12-29T00:20:56;98376.47;;;9.49;92.23
53719;BME280;39616;48.872;9.390;2023-12-29T00:23:26;98368.09;;;9.51;92.53
53719;BME280;39616;48.872;9.390;2023-12-29T00:25:57;98379.97;;;9.50;91.68
53719;BME280;39616;48.872;9.390;2023-12-29T00:28:27;98371.38;;;9.48;91.66
53719;BME280;39616;48.872;9.390;2023-12-29T00:30:57;98376.22;;;9.51;91.66
53719;BME280;39616;48.872;9.390;2023-12-29T00:33:28;98378.13;;;9.50;90.99
53719;BME280;39616;48.872;9.390;2023-12-29T00:35:58;98360.47;;;9.53;90.21
53719;BME280;39616;48.872;9.390;2023-12-29T00:38:29;98361.00;;;9.55;90.39
53719;BME280;39616;48.872;9.390;2023-12-29T00:40:59;98364.56;;;9.50;90.86
53719;BME280;39616;48.872;9.390;2023-12-29T00:43:30;98369.47;;;9.48;90.78
53719;BME280;39616;48.872;9.390;2023-12-29T00:46:02;98360.19;;;9.54;90.64
53719;BME280;39616;48.872;9.390;2023-12-29T00:48:32;98361.47;;;9.62;89.79
53719;BME280;39616;48.872;9.390;2023-12-29T00:51:03;98363.53;;;9.70;89.62
53719;BME280;39616;48.872;9.390;2023-12-29T00:53:38;98368.72;;;9.66;89.94
53719;BME280;39616;48.872;9.390;2023-12-29T00:56:12;98354.13;;;9.62;90.22
53719;BME280;39616;48.872;9.390;2023-12-29T00:58:42;98373.25;;;9.71;89.30
53719;BME280;39616;48.872;9.390;2023-12-29T01:01:13;98370.88;;;9.64;89.87
53719;BME280;39616;48.872;9.390;2023-12-29T01:03:43;98363.38;;;9.61;89.55
53719;BME280;39616;48.872;9.390;2023-12-29T01:06:14;98374.22;;;9.56;89.68
53719;BME280;39616;48.872;9.390;2023-12-29T01:08:44;98378.38;;;9.49;91.24
53719;BME280;39616;48.872;9.390;2023-12-29T01:11:14;98376.88;;;9.37;92.83
53719;BME280;39616;48.872;9.390;2023-12-29T01:13:45;98381.81;;;9.30;93.52
53719;BME280;39616;48.872;9.390;2023-12-29T01:16:15;98381.25;;;9.33;92.81
53719;BME280;39616;48.872;9.390;2023-12-29T01:18:46;98384.28;;;9.27;93.65
53719;BME280;39616;48.872;9.390;2023-12-29T01:21:17;98372.38;;;9.28;93.36
53719;BME280;39616;48.872;9.390;2023-12-29T01:23:48;98376.47;;;9.25;93.07
53719;BME280;39616;48.872;9.390;2023-12-29T01:26:18;98376.56;;;9.15;93.53
53719;BME280;39616;48.872;9.390;2023-12-29T01:28:49;98373.69;;;9.06;94.29
53719;BME280;39616;48.872;9.390;2023-12-29T01:31:20;98380.03;;;8.91;93.68
53719;BME280;39616;48.872;9.390;2023-12-29T01:33:51;98380.56;;;8.93;94.39
53719;BME280;39616;48.872;9.390;2023-12-29T01:36:21;98385.69;;;8.95;94.40
53719;BME280;39616;48.872;9.390;2023-12-29T01:38:52;98373.72;;;9.01;94.46
53719;BME280;39616;48.872;9.390;2023-12-29T01:41:23;98375.81;;;9.09;93.35
53719;BME280;39616;48.872;9.390;2023-12-29T01:46:31;98375.22;;;9.12;92.50
53719;BME280;39616;48.872;9.390;2023-12-29T01:49:03;98376.03;;;9.13;92.79
53719;BME280;39616;48.872;9.390;2023-12-29T01:51:33;98367.97;;;9.08;92.70
53719;BME280;39616;48.872;9.390;2023-12-29T01:54:04;98357.09;;;9.13;91.45
53719;BME280;39616;48.872;9.390;2023-12-29T01:56:34;98364.47;;;9.07;92.37
53719;BME280;39616;48.872;9.390;2023-12-29T01:59:05;98372.53;;;9.12;91.99
53719;BME280;39616;48.872;9.390;2023-12-29T02:01:36;98366.72;;;9.24;90.65
53719;BME280;39616;48.872;9.390;2023-12-29T02:04:07;98356.97;;;9.28;90.02
53719;BME280;39616;48.872;9.390;2023-12-29T02:06:39;98364.50;;;9.31;90.02
53719;BME280;39616;48.872;9.390;2023-12-29T02:09:11;98355.53;;;9.36;88.92
53719;BME280;39616;48.872;9.390;2023-12-29T02:11:42;98359.16;;;9.50;88.37
53719;BME280;39616;48.872;9.390;2023-12-29T02:14:13;98355.13;;;9.48;88.42
53719;BME280;39616;48.872;9.390;2023-12-29T02:19:42;98348.84;;;9.52;87.65
53719;BME280;39616;48.872;9.390;2023-12-29T02:22:14;98352.41;;;9.48;88.03
53719;BME280;39616;48.872;9.390;2023-12-29T02:24:51;98339.91;;;9.52;87.95
53719;BME280;39616;48.872;9.390;2023-12-29T02:27:35;98341.25;;;9.54;88.11
53719;BME280;39616;48.872;9.390;2023-12-29T02:32:54;98337.13;;;9.57;87.69
53719;BME280;39616;48.872;9.390;2023-12-29T02:35:28;98335.38;;;9.47;88.38
53719;BME280;39616;48.872;9.390;2023-12-29T02:37:58;98333.69;;;9.51;88.49
53719;BME280;39616;48.872;9.390;2023-12-29T02:40:29;98324.78;;;9.51;88.54
53719;BME280;39616;48.872;9.390;2023-12-29T02:43:00;98323.91;;;9.55;88.06
53719;BME280;39616;48.872;9.390;2023-12-29T02:45:30;98327.72;;;9.54;88.35
53719;BME280;39616;48.872;9.390;2023-12-29T02:48:00;98331.22;;;9.55;88.35
53719;BME280;39616;48.872;9.390;2023-12-29T02:50:30;98327.13;;;9.57;88.02
53719;BME280;39616;48.872;9.390;2023-12-29T02:53:01;98332.47;;;9.62;87.16
53719;BME280;39616;48.872;9.390;2023-12-29T02:55:31;98322.44;;;9.63;87.18
53719;BME280;39616;48.872;9.390;2023-12-29T02:58:01;98322.97;;;9.65;86.89
53719;BME280;39616;48.872;9.390;2023-12-29T03:00:32;98326.41;;;9.71;86.25
53719;BME280;39616;48.872;9.390;2023-12-29T03:03:02;98322.75;;;9.61;86.99
53719;BME280;39616;48.872;9.390;2023-12-29T03:05:32;98322.97;;;9.65;87.42
53719;BME280;39616;48.872;9.390;2023-12-29T03:08:03;98322.44;;;9.63;87.09
53719;BME280;39616;48.872;9.390;2023-12-29T03:10:33;98304.38;;;9.58;87.81
53719;BME280;39616;48.872;9.390;2023-12-29T03:13:04;98313.16;;;9.50;88.42
53719;BME280;39616;48.872;9.390;2023-12-29T03:15:34;98321.03;;;9.47;89.08
53719;BME280;39616;48.872;9.390;2023-12-29T03:18:04;98320.22;;;9.46;89.24
53719;BME280;39616;48.872;9.390;2023-12-29T03:20:35;98309.38;;;9.46;89.43
53719;BME280;39616;48.872;9.390;2023-12-29T03:23:05;98319.00;;;9.33;90.64
53719;BME280;39616;48.872;9.390;2023-12-29T03:25:35;98310.09;;;9.33;91.30
53719;BME280;39616;48.872;9.390;2023-12-29T03:28:05;98308.50;;;9.32;91.64
53719;BME280;39616;48.872;9.390;2023-12-29T03:30:36;98289.56;;;9.32;92.18
53719;BME280;39616;48.872;9.390;2023-12-29T03:33:07;98299.53;;;9.31;92.64
53719;BME280;39616;48.872;9.390;2023-12-29T03:35:37;98304.56;;;9.19;93.71
53719;BME280;39616;48.872;9.390;2023-12-29T03:38:07;98298.56;;;9.22;94.10
53719;BME280;39616;48.872;9.390;2023-12-29T03:40:37;98307.72;;;9.26;93.47
53719;BME280;39616;48.872;9.390;2023-12-29T03:43:08;98310.50;;;9.21;94.27
53719;BME280;39616;48.872;9.390;2023-12-29T03:45:38;98299.38;;;9.23;94.78
53719;BME280;39616;48.872;9.390;2023-12-29T03:48:08;98299.16;;;9.19;95.23
53719;BME280;39616;48.872;9.390;2023-12-29T03:50:39;98297.66;;;9.08;96.35
53719;BME280;39616;48.872;9.390;2023-12-29T03:53:09;98297.66;;;9.08;96.29
53719;BME280;39616;48.872;9.390;2023-12-29T03:55:40;98303.59;;;9.10;96.31
53719;BME280;39616;48.872;9.390;2023-12-29T03:58:10;98294.94;;;9.08;96.59
53719;BME280;39616;48.872;9.390;2023-12-29T04:00:40;98297.94;;;9.06;97.24
53719;BME280;39616;48.872;9.390;2023-12-29T04:03:11;98307.72;;;9.02;98.29
53719;BME280;39616;48.872;9.390;2023-12-29T04:05:42;98309.09;;;9.00;98.96
53719;BME280;39616;48.872;9.390;2023-12-29T04:08:12;98293.38;;;9.02;98.82
53719;BME280;39616;48.872;9.390;2023-12-29T04:10:43;98299.38;;;8.99;99.85
53719;BME280;39616;48.872;9.390;2023-12-29T04:13:13;98284.47;;;9.01;100.00
53719;BME280;39616;48.872;9.390;2023-12-29T04:15:43;98286.91;;;9.03;100.00
53719;BME280;39616;48.872;9.390;2023-12-29T04:18:14;98280.22;;;8.95;100.00
53719;BME280;39616;48.872;9.390;2023-12-29T04:20:44;98286.44;;;8.95;100.00
53719;BME280;39616;48.872;9.390;2023-12-29T04:23:15;98286.47;;;8.90;100.00
53719;BME280;39616;48.872;9.390;2023-12-29T04:25:45;98279.59;;;9.03;100.00
53719;BME280;39616;48.872;9.390;2023-12-29T04:28:16;98286.13;;;8.97;100.00
53719;BME280;39616;48.872;9.390;2023-12-29T04:30:46;98294.78;;;8.99;100.00
53719;BME280;39616;48.872;9.390;2023-12-29T04:33:16;98284.28;;;8.92;100.00
53719;BME280;39616;48.872;9.390;2023-12-29T04:35:47;98291.13;;;8.85;100.00
53719;BME280;39616;48.872;9.390;2023-12-29T04:38:17;98288.13;;;8.86;100.00
53719;BME280;39616;48.872;9.390;2023-12-29T04:40:49;98295.97;;;8.88;100.00
53719;BME280;39616;48.872;9.390;2023-12-29T04:43:20;98300.28;;;8.89;100.00
53719;BME280;39616;48.872;9.390;2023-12-29T04:45:50;98298.94;;;8.86;100.00
53719;BME280;39616;48.872;9.390;2023-12-29T04:48:20;98295.97;;;8.88;100.00
53719;BME280;39616;48.872;9.390;2023-12-29T04:50:51;98297.25;;;8.95;100.00
53719;BME280;39616;48.872;9.390;2023-12-29T04:53:21;98297.00;;;8.92;100.00
53719;BME280;39616;48.872;9.390;2023-12-29T04:55:51;98304.81;;;8.93;100.00
53719;BME280;39616;48.872;9.390;2023-12-29T04:58:21;98304.56;;;8.95;100.00
53719;BME280;39616;48.872;9.390;2023-12-29T05:00:52;98309.66;;;8.97;100.00
53719;BME280;39616;48.872;9.390;2023-12-29T05:03:23;98312.06;;;8.98;100.00
53719;BME280;39616;48.872;9.390;2023-12-29T05:05:53;98316.19;;;8.95;100.00
53719;BME280;39616;48.872;9.390;2023-12-29T05:08:23;98301.25;;;8.98;100.00
53719;BME280;39616;48.872;9.390;2023-12-29T05:10:54;98299.63;;;9.02;100.00
53719;BME280;39616;48.872;9.390;2023-12-29T05:13:25;98305.84;;;9.03;100.00
53719;BME280;39616;48.872;9.390;2023-12-29T05:15:55;98296.94;;;8.97;100.00
53719;BME280;39616;48.872;9.390;2023-12-29T05:18:26;98302.41;;;8.92;100.00
53719;BME280;39616;48.872;9.390;2023-12-29T05:20:59;98296.78;;;8.88;100.00
53719;BME280;39616;48.872;9.390;2023-12-29T05:23:30;98296.44;;;8.95;100.00
53719;BME280;39616;48.872;9.390;2023-12-29T05:26:00;98306.16;;;8.96;100.00
53719;BME280;39616;48.872;9.390;2023-12-29T05:28:30;98313.47;;;8.95;100.00
53719;BME280;39616;48.872;9.390;2023-12-29T05:31:01;98313.72;;;8.99;100.00
53719;BME280;39616;48.872;9.390;2023-12-29T05:33:34;98309.13;;;8.94;100.00
53719;BME280;39616;48.872;9.390;2023-12-29T05:36:08;98305.69;;;8.89;100.00
53719;BME280;39616;48.872;9.390;2023-12-29T05:38:39;98294.94;;;8.84;100.00
53719;BME280;39616;48.872;9.390;2023-12-29T05:41:13;98295.28;;;8.72;100.00
53719;BME280;39616;48.872;9.390;2023-12-29T05:43:43;98296.44;;;8.66;100.00
53719;BME280;39616;48.872;9.390;2023-12-29T05:46:14;98299.47;;;8.59;100.00
53719;BME280;39616;48.872;9.390;2023-12-29T05:48:46;98314.16;;;8.48;100.00
53719;BME280;39616;48.872;9.390;2023-12-29T05:51:16;98303.13;;;8.44;100.00
53719;BME280;39616;48.872;9.390;2023-12-29T05:53:47;98301.78;;;8.42;100.00
53719;BME280;39616;48.872;9.390;2023-12-29T05:56:17;98298.84;;;8.38;100.00
53719;BME280;39616;48.872;9.390;2023-12-29T05:58:47;98302.34;;;8.34;100.00
53719;BME280;39616;48.872;9.390;2023-12-29T06:01:18;98301.81;;;8.37;100.00
53719;BME280;39616;48.872;9.390;2023-12-29T06:03:48;98301.81;;;8.32;100.00
53719;BME280;39616;48.872;9.390;2023-12-29T06:06:18;98293.97;;;8.35;100.00
53719;BME280;39616;48.872;9.390;2023-12-29T06:08:49;98293.72;;;8.32;100.00
53719;BME280;39616;48.872;9.390;2023-12-29T06:11:19;98308.38;;;8.26;100.00
53719;BME280;39616;48.872;9.390;2023-12-29T06:13:49;98305.09;;;8.29;100.00
53719;BME280;39616;48.872;9.390;2023-12-29T06:16:20;98312.88;;;8.35;100.00
53719;BME280;39616;48.872;9.390;2023-12-29T06:18:51;98315.88;;;8.34;100.00
53719;BME280;39616;48.872;9.390;2023-12-29T06:21:21;98320.97;;;8.35;100.00
53719;BME280;39616;48.872;9.390;2023-12-29T06:23:51;98308.03;;;8.37;100.00
53719;BME280;39616;48.872;9.390;2023-12-29T06:26:22;98304.81;;;8.30;100.00
53719;BME280;39616;48.872;9.390;2023-12-29T06:28:53;98321.34;;;8.23;100.00
53719;BME280;39616;48.872;9.390;2023-12-29T06:31:23;98310.88;;;8.12;100.00
53719;BME280;39616;48.872;9.390;2023-12-29T06:33:54;98309.03;;;8.07;100.00
53719;BME280;39616;48.872;9.390;2023-12-29T06:36:25;98311.50;;;8.04;100.00
53719;BME280;39616;48.872;9.390;2023-12-29T06:38:55;98309.09;;;7.97;100.00
53719;BME280;39616;48.872;9.390;2023-12-29T06:41:26;98308.59;;;7.90;100.00
53719;BME280;39616;48.872;9.390;2023-12-29T06:43:56;98310.28;;;7.81;100.00
53719;BME280;39616;48.872;9.390;2023-12-29T06:46:26;98308.13;;;7.78;100.00
53719;BME280;39616;48.872;9.390;2023-12-29T06:48:57;98314.34;;;7.73;100.00
53719;BME280;39616;48.872;9.390;2023-12-29T06:51:27;98305.16;;;7.79;100.00
53719;BME280;39616;48.872;9.390;2023-12-29T06:53:57;98289.78;;;7.74;100.00
53719;BME280;39616;48.872;9.390;2023-12-29T06:56:28;98293.53;;;7.79;100.00
53719;BME280;39616;48.872;9.390;2023-12-29T06:58:58;98294.09;;;7.81;100.00
53719;BME280;39616;48.872;9.390;2023-12-29T07:01:28;98299.19;;;7.82;100.00
53719;BME280;39616;48.872;9.390;2023-12-29T07:03:59;98304.84;;;7.86;100.00
53719;BME280;39616;48.872;9.390;2023-12-29T07:06:29;98295.38;;;7.88;100.00
53719;BME280;39616;48.872;9.390;2023-12-29T07:08:59;98301.59;;;7.89;100.00
53719;BME280;39616;48.872;9.390;2023-12-29T07:11:31;98304.84;;;7.86;100.00
53719;BME280;39616;48.872;9.390;2023-12-29T07:14:01;98302.91;;;7.91;100.00
53719;BME280;39616;48.872;9.390;2023-12-29T07:16:32;98305.28;;;8.03;100.00
53719;BME280;39616;48.872;9.390;2023-12-29T07:19:02;98297.38;;;8.12;100.00
53719;BME280;39616;48.872;9.390;2023-12-29T07:21:33;98298.13;;;8.22;100.00
53719;BME280;39616;48.872;9.390;2023-12-29T07:24:04;98295.03;;;8.39;100.00
53719;BME280;39616;48.872;9.390;2023-12-29T07:26:35;98289.28;;;8.51;100.00
53719;BME280;39616;48.872;9.390;2023-12-29T07:29:05;98279.44;;;8.65;100.00
53719;BME280;39616;48.872;9.390;2023-12-29T07:31:38;98273.66;;;8.72;100.00
53719;BME280;39616;48.872;9.390;2023-12-29T07:34:09;98289.31;;;8.75;100.00
53719;BME280;39616;48.872;9.390;2023-12-29T07:36:40;98277.38;;;8.81;100.00
53719;BME280;39616;48.872;9.390;2023-12-29T07:39:10;98284.06;;;8.89;100.00
53719;BME280;39616;48.872;9.390;2023-12-29T07:41:41;98272.94;;;8.90;100.00
53719;BME280;39616;48.872;9.390;2023-12-29T07:44:12;98268.56;;;8.94;100.00
53719;BME280;39616;48.872;9.390;2023-12-29T07:46:43;98266.97;;;8.93;100.00
53719;BME280;39616;48.872;9.390;2023-12-29T07:49:16;98274.03;;;8.89;100.00
53719;BME280;39616;48.872;9.390;2023-12-29T07:51:47;98270.31;;;8.85;100.00
53719;BME280;39616;48.872;9.390;2023-12-29T07:54:17;98280.25;;;8.90;100.00
53719;BME280;39616;48.872;9.390;2023-12-29T07:56:47;98288.66;;;8.88;100.00
53719;BME280;39616;48.872;9.390;2023-12-29T07:59:18;98278.31;;;8.95;100.00
53719;BME280;39616;48.872;9.390;2023-12-29T08:01:48;98290.41;;;9.03;100.00
53719;BME280;39616;48.872;9.390;2023-12-29T08:04:18;98284.94;;;9.08;100.00
53719;BME280;39616;48.872;9.390;2023-12-29T08:06:48;98286.50;;;9.14;100.00
53719;BME280;39616;48.872;9.390;2023-12-29T08:09:19;98293.56;;;9.10;100.00
53719;BME280;39616;48.872;9.390;2023-12-29T08:11:50;98296.50;;;9.14;100.00
53719;BME280;39616;48.872;9.390;2023-12-29T08:14:21;98300.41;;;9.27;100.00
53719;BME280;39616;48.872;9.390;2023-12-29T08:16:52;98293.09;;;9.27;100.00
53719;BME280;39616;48.872;9.390;2023-12-29T08:19:22;98295.81;;;9.27;100.00
53719;BME280;39616;48.872;9.390;2023-12-29T08:21:52;98307.88;;;9.35;100.00
53719;BME280;39616;48.872;9.390;2023-12-29T08:24:23;98291.31;;;9.41;100.00
53719;BME280;39616;48.872;9.390;2023-12-29T08:26:53;98301.91;;;9.38;100.00
53719;BME280;39616;48.872;9.390;2023-12-29T08:29:23;98315.41;;;9.43;100.00
53719;BME280;39616;48.872;9.390;2023-12-29T08:31:55;98311.00;;;9.47;100.00
53719;BME280;39616;48.872;9.390;2023-12-29T08:34:26;98312.91;;;9.47;100.00
53719;BME280;39616;48.872;9.390;2023-12-29T08:36:56;98310.44;;;9.50;100.00
53719;BME280;39616;48.872;9.390;2023-12-29T08:39:26;98314.19;;;9.54;100.00
53719;BME280;39616;48.872;9.390;2023-12-29T08:41:56;98314.91;;;9.60;100.00
53719;BME280;39616;48.872;9.390;2023-12-29T08:44:27;98307.88;;;9.59;100.00
53719;BME280;39616;48.872;9.390;2023-12-29T08:46:57;98307.31;;;9.62;100.00
53719;BME280;39616;48.872;9.390;2023-12-29T08:49:27;98311.63;;;9.63;100.00
53719;BME280;39616;48.872;9.390;2023-12-29T08:51:58;98319.66;;;9.68;100.00
53719;BME280;39616;48.872;9.390;2023-12-29T08:54:28;98308.25;;;9.71;100.00
53719;BME280;39616;48.872;9.390;2023-12-29T08:56:59;98306.56;;;9.75;100.00
53719;BME280;39616;48.872;9.390;2023-12-29T08:59:29;98312.81;;;9.76;100.00
53719;BME280;39616;48.872;9.390;2023-12-29T09:01:59;98314.34;;;9.82;100.00
53719;BME280;39616;48.872;9.390;2023-12-29T09:04:30;98315.38;;;9.86;100.00
53719;BME280;39616;48.872;9.390;2023-12-29T09:07:00;98312.63;;;9.91;100.00
53719;BME280;39616;48.872;9.390;2023-12-29T09:09:31;98315.16;;;9.82;100.00
53719;BME280;39616;48.872;9.390;2023-12-29T09:12:01;98318.03;;;9.91;100.00
53719;BME280;39616;48.872;9.390;2023-12-29T09:14:32;98321.66;;;9.81;100.00
53719;BME280;39616;48.872;9.390;2023-12-29T09:17:04;98319.50;;;9.83;100.00
53719;BME280;39616;48.872;9.390;2023-12-29T09:19:35;98319.41;;;9.88;100.00
53719;BME280;39616;48.872;9.390;2023-12-29T09:22:05;98319.50;;;9.83;100.00
53719;BME280;39616;48.872;9.390;2023-12-29T09:24:36;98316.47;;;9.85;100.00
53719;BME280;39616;48.872;9.390;2023-12-29T09:27:06;98318.66;;;9.83;100.00
53719;BME280;39616;48.872;9.390;2023-12-29T09:29:36;98318.66;;;9.83;100.00
53719;BME280;39616;48.872;9.390;2023-12-29T09:32:07;98321.25;;;9.93;100.00
53719;BME280;39616;48.872;9.390;2023-12-29T09:34:37;98322.03;;;9.93;100.00
53719;BME280;39616;48.872;9.390;2023-12-29T09:37:07;98320.66;;;9.96;100.00
53719;BME280;39616;48.872;9.390;2023-12-29T09:39:38;98325.56;;;9.94;100.00
53719;BME280;39616;48.872;9.390;2023-12-29T09:42:13;98326.81;;;10.02;100.00
53719;BME280;39616;48.872;9.390;2023-12-29T09:44:51;98331.59;;;10.10;100.00
53719;BME280;39616;48.872;9.390;2023-12-29T09:47:24;98337.13;;;10.19;100.00
53719;BME280;39616;48.872;9.390;2023-12-29T09:49:54;98347.34;;;10.27;100.00
53719;BME280;39616;48.872;9.390;2023-12-29T09:52:25;98345.59;;;10.36;100.00
53719;BME280;39616;48.872;9.390;2023-12-29T09:54:56;98352.84;;;10.40;100.00
53719;BME280;39616;48.872;9.390;2023-12-29T09:57:27;98356.28;;;10.46;100.00
53719;BME280;39616;48.872;9.390;2023-12-29T09:59:58;98353.06;;;10.44;100.00
53719;BME280;39616;48.872;9.390;2023-12-29T10:02:29;98351.72;;;10.42;100.00
53719;BME280;39616;48.872;9.390;2023-12-29T10:05:03;98355.53;;;10.40;100.00
53719;BME280;39616;48.872;9.390;2023-12-29T10:07:37;98347.63;;;10.44;100.00
53719;BME280;39616;48.872;9.390;2023-12-29T10:10:14;98340.88;;;10.42;100.00
53719;BME280;39616;48.872;9.390;2023-12-29T10:12:49;98347.13;;;10.42;100.00
53719;BME280;39616;48.872;9.390;2023-12-29T10:15:26;98340.16;;;10.36;100.00
53719;BME280;39616;48.872;9.390;2023-12-29T10:18:18;98340.44;;;10.34;100.00
53719;BME280;39616;48.872;9.390;2023-12-29T10:20:59;98341.28;;;10.35;100.00
53719;BME280;39616;48.872;9.390;2023-12-29T10:23:41;98332.09;;;10.50;100.00
53719;BME280;39616;48.872;9.390;2023-12-29T10:26:14;98322.81;;;10.70;100.00
53719;BME280;39616;48.872;9.390;2023-12-29T10:28:47;98325.09;;;10.95;98.92
53719;BME280;39616;48.872;9.390;2023-12-29T10:31:17;98321.81;;;11.26;96.25
53719;BME280;39616;48.872;9.390;2023-12-29T10:33:48;98311.25;;;11.79;94.83
53719;BME280;39616;48.872;9.390;2023-12-29T10:36:20;98302.56;;;12.05;91.06
53719;BME280;39616;48.872;9.390;2023-12-29T10:39:06;98294.38;;;12.64;87.62
53719;BME280;39616;48.872;9.390;2023-12-29T10:41:37;98294.41;;;12.72;85.92
53719;BME280;39616;48.872;9.390;2023-12-29T10:44:07;98301.66;;;12.54;85.26
53719;BME280;39616;48.872;9.390;2023-12-29T10:46:38;98296.53;;;12.53;86.79
53719;BME280;39616;48.872;9.390;2023-12-29T10:49:09;98290.88;;;13.03;84.27
53719;BME280;39616;48.872;9.390;2023-12-29T10:51:40;98294.19;;;13.22;82.19
53719;BME280;39616;48.872;9.390;2023-12-29T10:54:19;98287.72;;;13.41;81.44
53719;BME280;39616;48.872;9.390;2023-12-29T10:57:02;98286.44;;;13.38;80.39
53719;BME280;39616;48.872;9.390;2023-12-29T10:59:33;98286.31;;;13.21;81.01
53719;BME280;39616;48.872;9.390;2023-12-29T11:02:03;98285.59;;;12.98;82.33
53719;BME280;39616;48.872;9.390;2023-12-29T11:04:34;98275.69;;;13.33;81.06
53719;BME280;39616;48.872;9.390;2023-12-29T11:07:04;98275.78;;;13.68;78.32
53719;BME280;39616;48.872;9.390;2023-12-29T11:09:34;98265.66;;;13.77;78.86
53719;BME280;39616;48.872;9.390;2023-12-29T11:12:05;98269.91;;;13.35;77.18
53719;BME280;39616;48.872;9.390;2023-12-29T11:14:38;98259.53;;;13.37;78.23
53719;BME280;39616;48.872;9.390;2023-12-29T11:17:13;98268.81;;;13.04;78.59
53719;BME280;39616;48.872;9.390;2023-12-29T11:19:45;98251.94;;;12.94;78.86
53719;BME280;39616;48.872;9.390;2023-12-29T11:22:18;98257.44;;;12.71;78.74
53719;BME280;39616;48.872;9.390;2023-12-29T11:24:48;98253.53;;;12.86;78.64
53719;BME280;39616;48.872;9.390;2023-12-29T11:27:19;98255.44;;;12.32;79.24
53719;BME280;39616;48.872;9.390;2023-12-29T11:29:49;98256.97;;;12.47;79.88
53719;BME280;39616;48.872;9.390;2023-12-29T11:32:26;98240.84;;;12.28;79.88
53719;BME280;39616;48.872;9.390;2023-12-29T11:35:13;98255.84;;;12.25;78.71
53719;BME280;39616;48.872;9.390;2023-12-29T11:43:22;98246.63;;;12.26;79.42
53719;BME280;39616;48.872;9.390;2023-12-29T11:45:52;98244.38;;;12.28;79.84
53719;BME280;39616;48.872;9.390;2023-12-29T11:48:54;98242.44;;;12.06;78.60
53719;BME280;39616;48.872;9.390;2023-12-29T11:51:32;98235.09;;;12.29;79.15
53719;BME280;39616;48.872;9.390;2023-12-29T11:54:03;98229.19;;;12.05;79.53
53719;BME280;39616;48.872;9.390;2023-12-29T11:59:13;98244.13;;;11.94;78.88
53719;BME280;39616;48.872;9.390;2023-12-29T12:01:46;98229.47;;;11.67;79.76
53719;BME280;39616;48.872;9.390;2023-12-29T12:12:50;98227.38;;;11.64;80.46
53719;BME280;39616;48.872;9.390;2023-12-29T12:18:00;98213.72;;;11.78;79.71
53719;BME280;39616;48.872;9.390;2023-12-29T12:20:31;98212.63;;;11.79;78.46
53719;BME280;39616;48.872;9.390;2023-12-29T12:25:35;98212.78;;;11.96;77.89
53719;BME280;39616;48.872;9.390;2023-12-29T12:28:09;98209.16;;;12.01;76.53
53719;BME280;39616;48.872;9.390;2023-12-29T12:30:40;98206.31;;;12.06;76.89
53719;BME280;39616;48.872;9.390;2023-12-29T12:33:12;98198.66;;;12.08;75.59
53719;BME280;39616;48.872;9.390;2023-12-29T12:35:44;98199.94;;;12.11;75.94
53719;BME280;39616;48.872;9.390;2023-12-29T12:38:17;98199.53;;;12.17;75.73
53719;BME280;39616;48.872;9.390;2023-12-29T12:40:52;98188.69;;;12.26;74.01
53719;BME280;39616;48.872;9.390;2023-12-29T12:43:25;98190.97;;;12.32;74.58
53719;BME280;39616;48.872;9.390;2023-12-29T12:46:00;98190.03;;;12.60;73.27
53719;BME280;39616;48.872;9.390;2023-12-29T12:48:45;98186.47;;;12.59;71.64
53719;BME280;39616;48.872;9.390;2023-12-29T12:51:19;98189.88;;;12.65;70.75
53719;BME280;39616;48.872;9.390;2023-12-29T12:53:49;98195.66;;;12.72;72.04
53719;BME280;39616;48.872;9.390;2023-12-29T12:56:20;98184.16;;;12.75;72.12
53719;BME280;39616;48.872;9.390;2023-12-29T12:58:51;98193.59;;;12.77;70.93
53719;BME280;39616;48.872;9.390;2023-12-29T13:01:22;98190.53;;;12.39;70.69
53719;BME280;39616;48.872;9.390;2023-12-29T13:03:52;98196.69;;;12.53;71.87
53719;BME280;39616;48.872;9.390;2023-12-29T13:06:23;98199.50;;;12.40;72.38
53719;BME280;39616;48.872;9.390;2023-12-29T13:08:54;98197.22;;;12.33;72.44
53719;BME280;39616;48.872;9.390;2023-12-29T13:11:24;98198.47;;;12.27;73.15
53719;BME280;39616;48.872;9.390;2023-12-29T13:13:55;98202.41;;;12.21;72.19
53719;BME280;39616;48.872;9.390;2023-12-29T13:16:35;98200.22;;;12.00;72.83
53719;BME280;39616;48.872;9.390;2023-12-29T13:19:19;98206.19;;;11.89;72.88
53719;BME280;39616;48.872;9.390;2023-12-29T13:21:52;98210.53;;;11.90;73.38
53719;BME280;39616;48.872;9.390;2023-12-29T13:24:26;98207.63;;;11.86;74.01
53719;BME280;39616;48.872;9.390;2023-12-29T13:27:07;98213.91;;;11.81;74.28
53719;BME280;39616;48.872;9.390;2023-12-29T13:29:38;98210.22;;;11.77;73.87
53719;BME280;39616;48.872;9.390;2023-12-29T13:32:30;98217.19;;;11.70;73.97
53719;BME280;39616;48.872;9.390;2023-12-29T13:38:04;98208.94;;;11.75;74.61
53719;BME280;39616;48.872;9.390;2023-12-29T13:43:29;98208.66;;;11.63;75.06
53719;BME280;39616;48.872;9.390;2023-12-29T13:46:01;98205.72;;;11.59;75.29
53719;BME280;39616;48.872;9.390;2023-12-29T13:48:32;98207.22;;;11.65;75.11
53719;BME280;39616;48.872;9.390;2023-12-29T13:51:03;98198.09;;;11.61;74.65
53719;BME280;39616;48.872;9.390;2023-12-29T13:53:34;98196.00;;;11.58;74.59
53719;BME280;39616;48.872;9.390;2023-12-29T13:56:08;98203.53;;;11.61;74.67
53719;BME280;39616;48.872;9.390;2023-12-29T13:58:39;98203.81;;;11.59;75.01
53719;BME280;39616;48.872;9.390;2023-12-29T14:01:10;98205.06;;;11.53;75.43